createdAt,value
2023-05-13T00:00:23.037Z,99.90
2023-05-13T00:02:50.696Z,99.90
2023-05-13T00:05:18.293Z,99.90
2023-05-13T00:07:45.732Z,99.90
2023-05-13T00:10:13.159Z,99.90
2023-05-13T00:12:40.569Z,99.90
2023-05-13T00:15:08.713Z,99.90
2023-05-13T00:17:36.451Z,99.90
2023-05-13T00:20:04.714Z,99.90
2023-05-13T00:22:32.245Z,99.90
2023-05-13T00:25:01.069Z,99.90
2023-05-13T00:27:28.741Z,99.90
2023-05-13T00:29:56.229Z,99.90
2023-05-13T00:32:23.820Z,99.90
2023-05-13T00:34:51.235Z,99.90
2023-05-13T00:37:18.809Z,99.90
2023-05-13T00:39:46.527Z,99.90
2023-05-13T00:42:14.282Z,99.90
2023-05-13T00:44:42.005Z,99.90
2023-05-13T00:47:12.269Z,99.90
2023-05-13T00:49:40.029Z,99.90
2023-05-13T00:52:07.878Z,99.90
2023-05-13T00:54:35.838Z,99.90
2023-05-13T00:57:03.738Z,99.90
2023-05-13T00:59:31.686Z,99.90
2023-05-13T01:02:22.821Z,99.90
2023-05-13T01:05:09.553Z,99.90
2023-05-13T01:08:29.789Z,99.90
2023-05-13T01:11:17.440Z,99.90
2023-05-13T01:13:49.421Z,99.90
2023-05-13T01:16:31.038Z,99.90
2023-05-13T01:19:06.509Z,99.90
2023-05-13T01:21:38.928Z,99.90
2023-05-13T01:24:08.138Z,99.90
2023-05-13T01:26:36.130Z,99.90
2023-05-13T01:29:03.728Z,99.90
2023-05-13T01:31:31.595Z,99.90
2023-05-13T01:34:00.115Z,99.90
2023-05-13T01:36:29.948Z,99.90
2023-05-13T01:39:01.282Z,99.90
2023-05-13T01:41:31.205Z,99.90
2023-05-13T01:43:58.860Z,99.90
2023-05-13T01:46:26.723Z,99.90
2023-05-13T01:48:54.236Z,99.90
2023-05-13T01:51:21.785Z,99.90
2023-05-13T01:53:50.980Z,99.90
2023-05-13T01:56:19.163Z,99.90
2023-05-13T01:58:49.239Z,99.90
2023-05-13T02:01:21.804Z,99.90
2023-05-13T02:03:50.412Z,99.90
2023-05-13T02:06:17.968Z,99.90
2023-05-13T02:08:45.544Z,99.90
2023-05-13T02:11:12.923Z,99.90
2023-05-13T02:13:40.613Z,99.90
2023-05-13T02:16:14.801Z,99.90
2023-05-13T02:18:42.373Z,99.90
2023-05-13T02:21:09.916Z,99.90
2023-05-13T02:23:37.433Z,99.90
2023-05-13T02:26:05.039Z,99.90
2023-05-13T02:28:32.614Z,99.90
2023-05-13T02:31:00.055Z,99.90
2023-05-13T02:33:27.709Z,99.90
2023-05-13T02:35:55.233Z,99.90
2023-05-13T02:38:22.910Z,99.90
2023-05-13T02:40:50.575Z,99.90
2023-05-13T02:43:18.354Z,99.90
2023-05-13T02:45:52.650Z,99.90
2023-05-13T02:48:20.437Z,99.90
2023-05-13T02:50:47.843Z,99.90
2023-05-13T02:53:15.277Z,99.90
2023-05-13T02:55:49.397Z,99.90
2023-05-13T02:58:17.700Z,99.90
2023-05-13T03:00:46.712Z,99.90
2023-05-13T03:03:16.405Z,99.90
2023-05-13T03:05:44.102Z,99.90
2023-05-13T03:08:11.835Z,99.90
2023-05-13T03:10:39.655Z,99.90
2023-05-13T03:13:07.098Z,99.90
2023-05-13T03:15:34.532Z,99.90
2023-05-13T03:18:02.076Z,99.90
2023-05-13T03:20:29.674Z,99.90
2023-05-13T03:22:57.109Z,99.90
2023-05-13T03:25:24.519Z,99.90
2023-05-13T03:27:58.382Z,99.90
2023-05-13T03:30:28.863Z,99.90
2023-05-13T03:33:10.813Z,99.90
2023-05-13T03:35:38.784Z,99.90
2023-05-13T03:38:06.880Z,99.90
2023-05-13T03:40:37.871Z,99.90
2023-05-13T03:43:08.855Z,99.90
2023-05-13T03:45:38.285Z,99.90
2023-05-13T03:48:09.670Z,99.90
2023-05-13T03:50:37.176Z,99.90
2023-05-13T03:53:07.754Z,99.90
2023-05-13T03:55:37.722Z,99.90
2023-05-13T03:58:13.701Z,99.90
2023-05-13T04:00:42.752Z,99.90
2023-05-13T04:03:10.709Z,99.90
2023-05-13T04:05:38.277Z,99.90
2023-05-13T04:08:05.980Z,99.90
2023-05-13T04:10:33.588Z,99.90
2023-05-13T04:13:01.134Z,99.90
2023-05-13T04:15:28.600Z,99.90
2023-05-13T04:17:56.147Z,99.90
2023-05-13T04:20:23.780Z,99.90
2023-05-13T04:22:52.893Z,99.90
2023-05-13T04:25:20.570Z,99.90
2023-05-13T04:27:48.160Z,99.90
2023-05-13T04:30:23.599Z,99.90
2023-05-13T04:32:51.869Z,99.90
2023-05-13T04:35:24.491Z,99.90
2023-05-13T04:37:55.839Z,99.90
2023-05-13T04:40:23.969Z,99.90
2023-05-13T04:42:55.113Z,99.90
2023-05-13T04:45:27.991Z,99.90
2023-05-13T04:47:58.345Z,99.90
2023-05-13T04:50:26.379Z,99.90
2023-05-13T04:52:56.434Z,99.90
2023-05-13T04:55:25.991Z,99.90
2023-05-13T04:57:55.823Z,99.90
2023-05-13T05:00:23.939Z,99.90
2023-05-13T05:02:52.598Z,99.90
2023-05-13T05:05:21.558Z,99.90
2023-05-13T05:07:49.323Z,99.90
2023-05-13T05:10:17.943Z,99.90
2023-05-13T05:12:52.120Z,99.90
2023-05-13T05:15:22.233Z,99.90
2023-05-13T05:17:54.097Z,99.90
2023-05-13T05:20:22.089Z,99.90
2023-05-13T05:22:51.084Z,99.90
2023-05-13T05:25:20.773Z,99.90
2023-05-13T05:27:48.247Z,99.90
2023-05-13T05:30:15.988Z,99.90
2023-05-13T05:32:47.044Z,99.90
2023-05-13T05:35:16.565Z,99.90
2023-05-13T05:37:44.362Z,99.90
2023-05-13T05:40:12.607Z,99.90
2023-05-13T05:42:40.738Z,99.90
2023-05-13T05:45:10.295Z,99.90
2023-05-13T05:47:38.638Z,99.90
2023-05-13T05:50:09.508Z,99.90
2023-05-13T05:52:37.082Z,99.90
2023-05-13T05:55:07.153Z,99.90
2023-05-13T05:57:34.593Z,99.90
2023-05-13T06:00:01.995Z,99.90
2023-05-13T06:02:29.917Z,99.90
2023-05-13T06:05:00.030Z,99.90
2023-05-13T06:07:27.607Z,99.90
2023-05-13T06:09:55.372Z,99.90
2023-05-13T06:12:23.045Z,99.90
2023-05-13T06:14:50.572Z,99.90
2023-05-13T06:17:18.169Z,99.90
2023-05-13T06:19:47.834Z,99.90
2023-05-13T06:22:15.309Z,99.90
2023-05-13T06:24:44.839Z,99.90
2023-05-13T06:27:14.313Z,98.40
2023-05-13T06:29:43.526Z,98.50
2023-05-13T06:32:11.231Z,96.80
2023-05-13T06:34:45.739Z,95.90
2023-05-13T06:37:16.953Z,95.00
2023-05-13T06:39:44.706Z,93.60
2023-05-13T06:42:14.220Z,94.00
2023-05-13T06:44:46.724Z,88.70
2023-05-13T06:47:16.463Z,87.40
2023-05-13T06:49:44.472Z,80.10
2023-05-13T06:52:12.188Z,76.90
2023-05-13T06:54:40.275Z,69.00
2023-05-13T06:57:07.935Z,64.80
2023-05-13T06:59:36.092Z,61.50
2023-05-13T07:02:09.945Z,61.40
2023-05-13T07:04:38.136Z,59.20
2023-05-13T07:07:05.555Z,58.10
2023-05-13T07:09:34.771Z,57.70
2023-05-13T07:12:02.264Z,60.50
2023-05-13T07:14:30.297Z,58.60
2023-05-13T07:16:58.845Z,57.80
2023-05-13T07:19:30.313Z,55.00
2023-05-13T07:21:57.913Z,53.10
2023-05-13T07:24:25.351Z,55.00
2023-05-13T07:26:52.832Z,55.40
2023-05-13T07:29:20.278Z,55.90
2023-05-13T07:31:49.628Z,52.60
2023-05-13T07:34:17.039Z,53.60
2023-05-13T07:36:44.682Z,53.10
2023-05-13T07:39:12.150Z,53.90
2023-05-13T07:41:39.630Z,52.30
2023-05-13T07:44:11.726Z,49.30
2023-05-13T07:46:39.355Z,49.10
2023-05-13T07:49:08.828Z,48.80
2023-05-13T07:51:36.563Z,47.20
2023-05-13T07:54:04.022Z,47.90
2023-05-13T07:56:31.794Z,47.70
2023-05-13T07:58:59.240Z,46.50
2023-05-13T08:01:26.958Z,47.60
2023-05-13T08:03:54.859Z,45.90
2023-05-13T08:06:22.463Z,45.00
2023-05-13T08:08:49.905Z,47.60
2023-05-13T08:11:17.539Z,47.10
2023-05-13T08:13:44.921Z,48.70
2023-05-13T08:16:12.456Z,50.20
2023-05-13T08:18:40.024Z,50.50
2023-05-13T08:21:07.541Z,49.70
2023-05-13T08:23:44.698Z,49.90
2023-05-13T08:26:15.660Z,49.00
2023-05-13T08:28:43.104Z,48.60
2023-05-13T08:31:13.836Z,49.30
2023-05-13T08:33:42.791Z,46.80
2023-05-13T08:36:12.852Z,47.30
2023-05-13T08:38:40.372Z,48.90
2023-05-13T08:41:08.235Z,48.00
2023-05-13T08:43:39.274Z,48.40
2023-05-13T08:46:09.917Z,46.90
2023-05-13T08:48:42.202Z,50.70
2023-05-13T08:51:10.260Z,52.90
2023-05-13T08:53:40.368Z,52.00
2023-05-13T08:56:09.474Z,51.50
2023-05-13T08:58:37.169Z,54.40
2023-05-13T09:01:06.265Z,50.70
2023-05-13T09:03:35.308Z,50.90
2023-05-13T09:06:04.082Z,52.70
2023-05-13T09:08:32.768Z,56.20
2023-05-13T09:11:01.068Z,51.70
2023-05-13T09:13:28.457Z,50.50
2023-05-13T09:15:56.013Z,51.80
2023-05-13T09:18:34.739Z,53.80
2023-05-13T09:21:24.056Z,51.80
2023-05-13T09:24:02.055Z,51.00
2023-05-13T09:26:30.445Z,53.70
2023-05-13T09:29:34.898Z,54.20
2023-05-13T09:32:09.541Z,55.80
2023-05-13T09:34:36.952Z,53.70
2023-05-13T09:37:08.846Z,57.60
2023-05-13T09:39:41.646Z,53.40
2023-05-13T09:42:16.915Z,52.50
2023-05-13T09:44:48.999Z,53.70
2023-05-13T09:47:17.453Z,51.00
2023-05-13T09:49:53.116Z,51.50
2023-05-13T09:52:22.712Z,50.00
2023-05-13T09:54:50.255Z,52.90
2023-05-13T09:57:17.835Z,50.40
2023-05-13T09:59:45.202Z,52.60
2023-05-13T10:02:15.097Z,50.30
2023-05-13T10:04:42.956Z,50.40
2023-05-13T10:07:13.333Z,49.00
2023-05-13T10:09:42.419Z,53.20
2023-05-13T10:12:14.336Z,48.50
2023-05-13T10:14:43.441Z,50.80
2023-05-13T10:17:11.874Z,47.90
2023-05-13T10:19:39.655Z,50.60
2023-05-13T10:22:10.814Z,49.90
2023-05-13T10:24:39.954Z,49.70
2023-05-13T10:27:08.713Z,48.90
2023-05-13T10:29:37.854Z,49.10
2023-05-13T10:32:06.369Z,47.30
2023-05-13T10:34:37.440Z,47.80
2023-05-13T10:37:37.887Z,48.90
2023-05-13T10:40:48.706Z,49.90
2023-05-13T10:43:23.423Z,50.30
2023-05-13T10:46:00.309Z,50.00
2023-05-13T10:48:43.312Z,49.90
2023-05-13T10:51:15.078Z,51.00
2023-05-13T10:53:55.991Z,50.50
2023-05-13T10:56:25.344Z,53.70
2023-05-13T10:59:04.418Z,52.00
2023-05-13T11:01:43.578Z,53.60
2023-05-13T11:04:20.591Z,50.90
2023-05-13T11:06:50.369Z,53.20
2023-05-13T11:09:49.872Z,56.40
2023-05-13T11:12:17.351Z,55.10
2023-05-13T11:14:45.008Z,58.10
2023-05-13T11:17:13.212Z,60.80
2023-05-13T11:19:50.818Z,58.80
2023-05-13T11:22:24.310Z,62.00
2023-05-13T11:25:09.548Z,81.00
2023-05-13T11:27:47.351Z,88.50
2023-05-13T11:30:27.625Z,96.50
2023-05-13T11:32:59.637Z,97.00
2023-05-13T11:35:29.513Z,99.10
2023-05-13T11:38:00.037Z,99.90
2023-05-13T11:40:33.265Z,99.90
2023-05-13T11:43:01.660Z,98.40
2023-05-13T11:45:31.161Z,98.00
2023-05-13T11:47:59.431Z,96.60
2023-05-13T11:50:32.987Z,96.50
2023-05-13T11:53:01.820Z,98.60
2023-05-13T11:55:31.662Z,97.20
2023-05-13T11:58:00.310Z,95.70
2023-05-13T12:00:35.118Z,94.00
2023-05-13T12:03:13.564Z,95.50
2023-05-13T12:05:41.412Z,95.80
2023-05-13T12:08:10.079Z,92.40
2023-05-13T12:10:43.990Z,92.00
2023-05-13T12:13:12.530Z,93.50
2023-05-13T12:15:41.334Z,93.50
2023-05-13T12:18:08.868Z,90.40
2023-05-13T12:20:36.794Z,75.70
2023-05-13T12:23:05.329Z,76.40
2023-05-13T12:25:43.133Z,72.30
2023-05-13T12:28:24.243Z,74.90
2023-05-13T12:31:03.476Z,75.90
2023-05-13T12:33:42.542Z,72.10
2023-05-13T12:36:26.240Z,72.50
2023-05-13T12:39:01.715Z,69.40
2023-05-13T12:41:35.114Z,66.20
2023-05-13T12:44:14.654Z,65.30
2023-05-13T12:46:57.403Z,65.00
2023-05-13T12:49:25.336Z,64.50
2023-05-13T12:51:52.802Z,64.50
2023-05-13T12:54:20.268Z,65.10
2023-05-13T12:56:48.551Z,66.50
2023-05-13T12:59:16.905Z,65.80
2023-05-13T13:01:44.406Z,68.00
2023-05-13T13:04:12.100Z,64.20
2023-05-13T13:06:43.103Z,63.00
2023-05-13T13:09:10.512Z,63.70
2023-05-13T13:11:39.307Z,65.10
2023-05-13T13:14:06.781Z,65.70
2023-05-13T13:16:34.285Z,63.80
2023-05-13T13:19:02.170Z,63.10
2023-05-13T13:21:29.684Z,68.50
2023-05-13T13:23:57.152Z,68.40
2023-05-13T13:26:24.582Z,66.20
2023-05-13T13:28:52.245Z,64.00
2023-05-13T13:31:20.163Z,62.90
2023-05-13T13:33:47.617Z,62.50
2023-05-13T13:36:15.165Z,62.80
2023-05-13T13:38:44.862Z,62.90
2023-05-13T13:41:12.264Z,64.30
2023-05-13T13:43:39.752Z,65.70
2023-05-13T13:46:08.088Z,64.50
2023-05-13T13:48:35.742Z,62.90
2023-05-13T13:51:03.223Z,66.40
2023-05-13T13:53:30.808Z,63.60
2023-05-13T13:55:58.304Z,64.70
2023-05-13T13:58:26.359Z,63.70
2023-05-13T14:00:54.065Z,67.00
2023-05-13T14:03:21.671Z,64.00
2023-05-13T14:05:50.025Z,65.40
2023-05-13T14:08:17.701Z,65.70
2023-05-13T14:10:45.259Z,65.90
2023-05-13T14:13:12.878Z,68.00
2023-05-13T14:15:40.479Z,67.00
2023-05-13T14:18:11.207Z,66.10
2023-05-13T14:20:39.282Z,68.30
2023-05-13T14:23:06.907Z,69.30
2023-05-13T14:25:34.674Z,69.80
2023-05-13T14:28:02.402Z,73.80
2023-05-13T14:30:29.891Z,72.00
2023-05-13T14:32:57.497Z,73.80
2023-05-13T14:35:27.832Z,77.30
2023-05-13T14:37:55.838Z,82.70
2023-05-13T14:40:23.634Z,86.40
2023-05-13T14:42:51.727Z,87.00
2023-05-13T14:45:19.137Z,90.60
2023-05-13T14:47:46.579Z,91.30
2023-05-13T14:50:15.267Z,91.30
2023-05-13T14:52:42.806Z,90.90
2023-05-13T14:55:11.249Z,91.60
2023-05-13T14:57:41.648Z,93.40
2023-05-13T15:00:10.129Z,93.90
2023-05-13T15:02:37.941Z,95.60
2023-05-13T15:05:06.265Z,93.30
2023-05-13T15:07:33.958Z,95.90
2023-05-13T15:10:01.486Z,94.80
2023-05-13T15:12:29.005Z,95.10
2023-05-13T15:14:59.849Z,95.20
2023-05-13T15:17:27.408Z,95.20
2023-05-13T15:19:58.093Z,95.70
2023-05-13T15:22:25.816Z,94.20
2023-05-13T15:24:53.270Z,92.20
2023-05-13T15:27:20.760Z,93.00
2023-05-13T15:29:48.194Z,92.90
2023-05-13T15:32:15.558Z,93.60
2023-05-13T15:34:43.666Z,95.00
2023-05-13T15:37:11.177Z,95.50
2023-05-13T15:39:38.616Z,94.60
2023-05-13T15:42:09.068Z,93.60
2023-05-13T15:44:36.680Z,94.80
2023-05-13T15:47:06.107Z,96.50
2023-05-13T15:49:33.797Z,95.90
2023-05-13T15:52:01.844Z,96.80
2023-05-13T15:54:29.314Z,97.70
2023-05-13T15:56:58.973Z,97.10
2023-05-13T15:59:26.580Z,98.40
2023-05-13T16:01:54.485Z,98.50
2023-05-13T16:04:22.114Z,97.90
2023-05-13T16:06:49.478Z,97.70
2023-05-13T16:09:17.003Z,98.70
2023-05-13T16:11:44.483Z,99.20
2023-05-13T16:14:12.765Z,99.90
2023-05-13T16:16:40.178Z,97.30
2023-05-13T16:19:08.712Z,98.10
2023-05-13T16:21:40.250Z,96.80
2023-05-13T16:24:07.966Z,98.60
2023-05-13T16:26:35.367Z,96.40
2023-05-13T16:29:03.078Z,96.90
2023-05-13T16:31:30.711Z,97.70
2023-05-13T16:33:58.214Z,97.00
2023-05-13T16:36:26.810Z,98.50
2023-05-13T16:38:54.177Z,97.80
2023-05-13T16:41:22.859Z,98.90
2023-05-13T16:43:50.204Z,98.60
2023-05-13T16:46:17.725Z,98.30
2023-05-13T16:48:45.463Z,99.20
2023-05-13T16:51:13.204Z,98.60
2023-05-13T16:53:42.814Z,99.20
2023-05-13T16:56:10.416Z,99.90
2023-05-13T16:58:38.814Z,99.90
2023-05-13T17:01:09.657Z,99.90
2023-05-13T17:03:37.168Z,99.90
2023-05-13T17:06:07.325Z,99.90
2023-05-13T17:08:34.800Z,99.90
2023-05-13T17:11:02.147Z,99.90
2023-05-13T17:13:29.952Z,99.90
2023-05-13T17:15:57.354Z,99.90
2023-05-13T17:18:26.493Z,99.90
2023-05-13T17:20:55.165Z,99.90
2023-05-13T17:23:22.674Z,99.90
2023-05-13T17:25:50.041Z,99.90
2023-05-13T17:28:18.168Z,99.90
2023-05-13T17:30:45.684Z,99.90
2023-05-13T17:33:16.206Z,99.90
2023-05-13T17:35:43.955Z,99.90
2023-05-13T17:38:11.637Z,99.90
2023-05-13T17:40:39.141Z,99.90
2023-05-13T17:43:06.586Z,99.90
2023-05-13T17:45:35.821Z,99.90
2023-05-13T17:48:04.226Z,99.90
2023-05-13T17:50:32.123Z,99.90
2023-05-13T17:53:00.676Z,99.90
2023-05-13T17:55:28.100Z,99.90
2023-05-13T17:57:58.395Z,99.90
2023-05-13T18:00:27.436Z,99.90
2023-05-13T18:02:55.313Z,99.90
2023-05-13T18:05:23.373Z,99.90
2023-05-13T18:07:51.205Z,99.90
2023-05-13T18:10:18.846Z,99.90
2023-05-13T18:12:46.331Z,99.90
2023-05-13T18:15:13.971Z,99.90
2023-05-13T18:17:41.384Z,99.90
2023-05-13T18:20:09.353Z,99.90
2023-05-13T18:22:36.789Z,99.90
2023-05-13T18:25:04.665Z,99.90
2023-05-13T18:27:32.224Z,99.90
2023-05-13T18:29:59.663Z,99.90
2023-05-13T18:32:27.473Z,99.90
2023-05-13T18:34:55.013Z,99.90
2023-05-13T18:37:25.509Z,99.90
2023-05-13T18:39:57.168Z,99.90
2023-05-13T18:42:25.915Z,99.90
2023-05-13T18:44:53.652Z,99.90
2023-05-13T18:47:21.106Z,99.90
2023-05-13T18:49:48.505Z,99.90
2023-05-13T18:52:18.953Z,99.90
2023-05-13T18:54:46.510Z,99.90
2023-05-13T18:57:14.951Z,99.90
2023-05-13T18:59:44.929Z,99.90
2023-05-13T19:02:12.592Z,99.90
2023-05-13T19:04:40.280Z,99.90
2023-05-13T19:07:09.578Z,99.90
2023-05-13T19:09:37.175Z,99.90
2023-05-13T19:12:04.956Z,99.90
2023-05-13T19:14:32.806Z,99.90
2023-05-13T19:17:00.406Z,99.90
2023-05-13T19:19:27.906Z,99.90
2023-05-13T19:21:55.431Z,99.90
2023-05-13T19:24:23.117Z,99.90
2023-05-13T19:26:50.639Z,99.90
2023-05-13T19:29:18.283Z,99.90
2023-05-13T19:31:45.795Z,99.90
2023-05-13T19:34:14.618Z,99.90
2023-05-13T19:36:42.271Z,99.90
2023-05-13T19:39:10.320Z,99.90
2023-05-13T19:41:38.650Z,99.90
2023-05-13T19:44:06.258Z,99.90
2023-05-13T19:46:34.030Z,99.90
2023-05-13T19:49:01.600Z,99.90
2023-05-13T19:51:32.667Z,99.90
2023-05-13T19:54:00.190Z,99.90
2023-05-13T19:56:27.802Z,99.90
2023-05-13T19:58:55.315Z,99.90
2023-05-13T20:01:26.668Z,99.90
2023-05-13T20:03:55.534Z,99.90
2023-05-13T20:06:22.989Z,99.90
2023-05-13T20:08:50.714Z,99.90
2023-05-13T20:11:18.329Z,99.90
2023-05-13T20:13:53.282Z,99.90
2023-05-13T20:16:22.299Z,99.90
2023-05-13T20:18:52.796Z,99.90
2023-05-13T20:21:21.543Z,99.90
2023-05-13T20:23:49.326Z,99.90
2023-05-13T20:26:19.210Z,99.90
2023-05-13T20:28:47.840Z,99.90
2023-05-13T20:31:15.385Z,99.90
2023-05-13T20:33:45.184Z,99.90
2023-05-13T20:36:12.836Z,99.90
2023-05-13T20:38:40.406Z,99.90
2023-05-13T20:41:07.855Z,99.90
2023-05-13T20:43:38.787Z,99.90
2023-05-13T20:46:09.436Z,99.90
2023-05-13T20:48:36.889Z,99.90
2023-05-13T20:51:06.228Z,99.90
2023-05-13T20:53:37.429Z,99.90
2023-05-13T20:56:10.169Z,99.90
2023-05-13T20:58:37.716Z,99.90
2023-05-13T21:01:05.167Z,99.90
2023-05-13T21:03:33.073Z,99.90
2023-05-13T21:06:00.701Z,99.90
2023-05-13T21:08:28.057Z,99.90
2023-05-13T21:10:56.944Z,99.90
2023-05-13T21:13:25.998Z,99.90
2023-05-13T21:15:53.510Z,99.90
2023-05-13T21:18:21.516Z,99.90
2023-05-13T21:20:49.045Z,99.90
2023-05-13T21:23:16.500Z,99.90
2023-05-13T21:25:44.118Z,99.90
2023-05-13T21:28:11.862Z,99.90
2023-05-13T21:30:39.315Z,99.90
2023-05-13T21:33:06.929Z,99.90
2023-05-13T21:35:34.698Z,99.90
2023-05-13T21:38:11.604Z,99.90
2023-05-13T21:40:40.195Z,99.90
2023-05-13T21:43:08.022Z,99.90
2023-05-13T21:45:38.151Z,99.90
2023-05-13T21:48:06.033Z,99.90
2023-05-13T21:50:34.161Z,99.90
2023-05-13T21:53:01.691Z,99.90
2023-05-13T21:55:29.247Z,99.90
2023-05-13T21:57:56.898Z,99.90
2023-05-13T22:00:24.635Z,99.90
2023-05-13T22:02:52.385Z,99.90
2023-05-13T22:05:20.018Z,99.90
2023-05-13T22:07:47.455Z,99.90
2023-05-13T22:10:14.919Z,99.90
2023-05-13T22:12:42.404Z,99.90
2023-05-13T22:15:10.950Z,99.90
2023-05-13T22:17:44.818Z,99.90
2023-05-13T22:20:14.881Z,99.90
2023-05-13T22:22:42.402Z,99.90
2023-05-13T22:25:10.357Z,99.90
2023-05-13T22:27:37.817Z,99.90
2023-05-13T22:30:06.726Z,99.90
2023-05-13T22:32:34.481Z,99.90
2023-05-13T22:35:02.716Z,99.90
2023-05-13T22:37:30.397Z,99.90
2023-05-13T22:39:57.842Z,99.90
2023-05-13T22:42:25.916Z,99.90
2023-05-13T22:44:53.842Z,99.90
2023-05-13T22:47:21.296Z,99.90
2023-05-13T22:49:48.910Z,99.90
2023-05-13T22:52:16.319Z,99.90
2023-05-13T22:54:43.852Z,99.90
2023-05-13T22:57:13.845Z,99.90
2023-05-13T22:59:41.755Z,99.90
2023-05-13T23:02:09.184Z,99.90
2023-05-13T23:04:39.392Z,99.90
2023-05-13T23:07:07.725Z,99.90
2023-05-13T23:09:35.259Z,99.90
2023-05-13T23:12:03.545Z,99.90
2023-05-13T23:14:31.087Z,99.90
2023-05-13T23:17:01.932Z,99.90
2023-05-13T23:19:32.480Z,99.90
2023-05-13T23:22:00.155Z,99.90
2023-05-13T23:24:27.618Z,99.90
2023-05-13T23:26:55.048Z,99.90
2023-05-13T23:29:22.492Z,99.90
2023-05-13T23:31:49.975Z,99.90
2023-05-13T23:34:17.419Z,99.90
2023-05-13T23:36:44.920Z,99.90
2023-05-13T23:39:12.289Z,99.90
2023-05-13T23:41:40.239Z,99.90
2023-05-13T23:44:07.657Z,99.90
2023-05-13T23:46:35.213Z,99.90
2023-05-13T23:49:03.175Z,99.90
2023-05-13T23:51:32.087Z,99.90
2023-05-13T23:53:59.977Z,99.90
2023-05-13T23:56:27.554Z,99.90
2023-05-13T23:58:54.954Z,99.90
